<?xml version="1.0" encoding="UTF-8" standalone="no" ?>
<gpx xmlns="http://www.topografix.com/GPX/1/1" xmlns:xsi="http://www.w3.org/2001/XMLSchema-instance" xsi:schemaLocation="http://www.topografix.com/GPX/1/1 http://www.topografix.com/GPX/1/1/gpx.xsd" version="1.1" creator="VisuGPX - https://www.visugpx.com">
  <metadata>
    <name>JLD St André de Double </name>
    <desc><![CDATA[Rando facile à St André de Double]]></desc>
  </metadata>
  <trk>
    <name><![CDATA[Randonnée du 04/11/2018 à 11:44]]></name>
    <trkseg>
      <trkpt lat="45.14632" lon="0.31909">
        <ele>120</ele>
        <time>2018-11-04T11:51:47+01:00</time>
      </trkpt>
      <trkpt lat="45.14624" lon="0.31943">
        <ele>119</ele>
        <time>2018-11-04T11:51:52+01:00</time>
      </trkpt>
      <trkpt lat="45.14641" lon="0.32046">
        <ele>112</ele>
        <time>2018-11-04T11:51:57+01:00</time>
      </trkpt>
      <trkpt lat="45.14719" lon="0.32216">
        <ele>107</ele>
        <time>2018-11-04T11:52:02+01:00</time>
      </trkpt>
      <trkpt lat="45.14716" lon="0.32295">
        <ele>109</ele>
        <time>2018-11-04T11:52:07+01:00</time>
      </trkpt>
      <trkpt lat="45.14862" lon="0.3272">
        <ele>123</ele>
        <time>2018-11-04T11:52:12+01:00</time>
      </trkpt>
      <trkpt lat="45.14638" lon="0.32995">
        <ele>129</ele>
        <time>2018-11-04T11:52:17+01:00</time>
      </trkpt>
      <trkpt lat="45.1462" lon="0.33203">
        <ele>132</ele>
        <time>2018-11-04T11:52:22+01:00</time>
      </trkpt>
      <trkpt lat="45.14607" lon="0.33349">
        <ele>134</ele>
        <time>2018-11-04T11:52:27+01:00</time>
      </trkpt>
      <trkpt lat="45.14621" lon="0.33507">
        <ele>130</ele>
        <time>2018-11-04T11:52:32+01:00</time>
      </trkpt>
      <trkpt lat="45.14571" lon="0.33743">
        <ele>122</ele>
        <time>2018-11-04T11:52:37+01:00</time>
      </trkpt>
      <trkpt lat="45.14532" lon="0.33866">
        <ele>120</ele>
        <time>2018-11-04T11:52:42+01:00</time>
      </trkpt>
      <trkpt lat="45.14508" lon="0.33999">
        <ele>115</ele>
        <time>2018-11-04T11:52:47+01:00</time>
      </trkpt>
      <trkpt lat="45.14497" lon="0.34117">
        <ele>113</ele>
        <time>2018-11-04T11:52:52+01:00</time>
      </trkpt>
      <trkpt lat="45.14492" lon="0.34237">
        <ele>110</ele>
        <time>2018-11-04T11:52:57+01:00</time>
      </trkpt>
      <trkpt lat="45.14521" lon="0.34319">
        <ele>112</ele>
        <time>2018-11-04T11:53:02+01:00</time>
      </trkpt>
      <trkpt lat="45.14536" lon="0.34385">
        <ele>114</ele>
        <time>2018-11-04T11:53:07+01:00</time>
      </trkpt>
      <trkpt lat="45.14577" lon="0.34488">
        <ele>119</ele>
        <time>2018-11-04T11:53:12+01:00</time>
      </trkpt>
      <trkpt lat="45.14592" lon="0.34595">
        <ele>121</ele>
        <time>2018-11-04T11:53:17+01:00</time>
      </trkpt>
      <trkpt lat="45.14556" lon="0.34636">
        <ele>122</ele>
        <time>2018-11-04T11:53:22+01:00</time>
      </trkpt>
      <trkpt lat="45.14441" lon="0.3469">
        <ele>128</ele>
        <time>2018-11-04T11:53:27+01:00</time>
      </trkpt>
      <trkpt lat="45.14326" lon="0.35306">
        <ele>137</ele>
        <time>2018-11-04T11:53:32+01:00</time>
      </trkpt>
      <trkpt lat="45.14321" lon="0.35383">
        <ele>139</ele>
        <time>2018-11-04T11:53:37+01:00</time>
      </trkpt>
      <trkpt lat="45.14284" lon="0.35445">
        <ele>139</ele>
        <time>2018-11-04T11:53:42+01:00</time>
      </trkpt>
      <trkpt lat="45.14302" lon="0.35488">
        <ele>139</ele>
        <time>2018-11-04T11:53:47+01:00</time>
      </trkpt>
      <trkpt lat="45.14314" lon="0.3567">
        <ele>141</ele>
        <time>2018-11-04T11:53:52+01:00</time>
      </trkpt>
      <trkpt lat="45.14326" lon="0.35799">
        <ele>143</ele>
        <time>2018-11-04T11:53:57+01:00</time>
      </trkpt>
      <trkpt lat="45.1425" lon="0.35975">
        <ele>144</ele>
        <time>2018-11-04T11:54:02+01:00</time>
      </trkpt>
      <trkpt lat="45.14359" lon="0.36209">
        <ele>146</ele>
        <time>2018-11-04T11:54:07+01:00</time>
      </trkpt>
      <trkpt lat="45.14353" lon="0.36254">
        <ele>148</ele>
        <time>2018-11-04T11:54:12+01:00</time>
      </trkpt>
      <trkpt lat="45.14206" lon="0.36275">
        <ele>146</ele>
        <time>2018-11-04T11:54:17+01:00</time>
      </trkpt>
      <trkpt lat="45.14053" lon="0.36336">
        <ele>142</ele>
        <time>2018-11-04T11:54:22+01:00</time>
      </trkpt>
      <trkpt lat="45.13987" lon="0.36381">
        <ele>137</ele>
        <time>2018-11-04T11:54:27+01:00</time>
      </trkpt>
      <trkpt lat="45.13754" lon="0.36333">
        <ele>137</ele>
        <time>2018-11-04T11:54:32+01:00</time>
      </trkpt>
      <trkpt lat="45.13608" lon="0.36346">
        <ele>133</ele>
        <time>2018-11-04T11:54:37+01:00</time>
      </trkpt>
      <trkpt lat="45.13477" lon="0.36415">
        <ele>131</ele>
        <time>2018-11-04T11:54:42+01:00</time>
      </trkpt>
      <trkpt lat="45.13406" lon="0.36552">
        <ele>126</ele>
        <time>2018-11-04T11:54:47+01:00</time>
      </trkpt>
      <trkpt lat="45.13344" lon="0.36604">
        <ele>127</ele>
        <time>2018-11-04T11:54:52+01:00</time>
      </trkpt>
      <trkpt lat="45.13265" lon="0.36801">
        <ele>128</ele>
        <time>2018-11-04T11:54:57+01:00</time>
      </trkpt>
      <trkpt lat="45.13254" lon="0.36836">
        <ele>129</ele>
        <time>2018-11-04T11:55:02+01:00</time>
      </trkpt>
      <trkpt lat="45.13036" lon="0.36499">
        <ele>122</ele>
        <time>2018-11-04T11:55:07+01:00</time>
      </trkpt>
      <trkpt lat="45.1293" lon="0.36408">
        <ele>113</ele>
        <time>2018-11-04T11:55:12+01:00</time>
      </trkpt>
      <trkpt lat="45.12826" lon="0.3634">
        <ele>106</ele>
        <time>2018-11-04T11:55:17+01:00</time>
      </trkpt>
      <trkpt lat="45.12771" lon="0.36235">
        <ele>102</ele>
        <time>2018-11-04T11:55:22+01:00</time>
      </trkpt>
      <trkpt lat="45.12827" lon="0.36153">
        <ele>103</ele>
        <time>2018-11-04T11:55:27+01:00</time>
      </trkpt>
      <trkpt lat="45.12896" lon="0.35823">
        <ele>114</ele>
        <time>2018-11-04T11:55:32+01:00</time>
      </trkpt>
      <trkpt lat="45.13038" lon="0.35364">
        <ele>120</ele>
        <time>2018-11-04T11:55:37+01:00</time>
      </trkpt>
      <trkpt lat="45.13036" lon="0.35211">
        <ele>128</ele>
        <time>2018-11-04T11:55:42+01:00</time>
      </trkpt>
      <trkpt lat="45.12938" lon="0.3507">
        <ele>130</ele>
        <time>2018-11-04T11:55:47+01:00</time>
      </trkpt>
      <trkpt lat="45.12897" lon="0.34926">
        <ele>132</ele>
        <time>2018-11-04T11:55:52+01:00</time>
      </trkpt>
      <trkpt lat="45.13118" lon="0.34733">
        <ele>133</ele>
        <time>2018-11-04T11:55:57+01:00</time>
      </trkpt>
      <trkpt lat="45.1328" lon="0.34509">
        <ele>134</ele>
        <time>2018-11-04T11:56:02+01:00</time>
      </trkpt>
      <trkpt lat="45.13416" lon="0.34458">
        <ele>137</ele>
        <time>2018-11-04T11:56:07+01:00</time>
      </trkpt>
      <trkpt lat="45.13239" lon="0.34082">
        <ele>134</ele>
        <time>2018-11-04T11:56:12+01:00</time>
      </trkpt>
      <trkpt lat="45.13194" lon="0.33979">
        <ele>136</ele>
        <time>2018-11-04T11:56:17+01:00</time>
      </trkpt>
      <trkpt lat="45.13132" lon="0.33947">
        <ele>136</ele>
        <time>2018-11-04T11:56:22+01:00</time>
      </trkpt>
      <trkpt lat="45.13065" lon="0.33851">
        <ele>137</ele>
        <time>2018-11-04T11:56:27+01:00</time>
      </trkpt>
      <trkpt lat="45.12944" lon="0.33653">
        <ele>134</ele>
        <time>2018-11-04T11:56:32+01:00</time>
      </trkpt>
      <trkpt lat="45.12906" lon="0.33593">
        <ele>134</ele>
        <time>2018-11-04T11:56:37+01:00</time>
      </trkpt>
      <trkpt lat="45.12809" lon="0.33568">
        <ele>130</ele>
        <time>2018-11-04T11:56:42+01:00</time>
      </trkpt>
      <trkpt lat="45.12853" lon="0.33527">
        <ele>133</ele>
        <time>2018-11-04T11:56:47+01:00</time>
      </trkpt>
      <trkpt lat="45.12894" lon="0.33441">
        <ele>132</ele>
        <time>2018-11-04T11:56:52+01:00</time>
      </trkpt>
      <trkpt lat="45.1298" lon="0.33387">
        <ele>126</ele>
        <time>2018-11-04T11:56:57+01:00</time>
      </trkpt>
      <trkpt lat="45.13095" lon="0.33353">
        <ele>119</ele>
        <time>2018-11-04T11:57:02+01:00</time>
      </trkpt>
      <trkpt lat="45.1318" lon="0.33256">
        <ele>112</ele>
        <time>2018-11-04T11:57:07+01:00</time>
      </trkpt>
      <trkpt lat="45.13351" lon="0.33196">
        <ele>109</ele>
        <time>2018-11-04T11:57:12+01:00</time>
      </trkpt>
      <trkpt lat="45.13403" lon="0.33201">
        <ele>110</ele>
        <time>2018-11-04T11:57:17+01:00</time>
      </trkpt>
      <trkpt lat="45.13439" lon="0.33183">
        <ele>111</ele>
        <time>2018-11-04T11:57:22+01:00</time>
      </trkpt>
      <trkpt lat="45.13471" lon="0.33119">
        <ele>114</ele>
        <time>2018-11-04T11:57:27+01:00</time>
      </trkpt>
      <trkpt lat="45.13506" lon="0.33108">
        <ele>116</ele>
        <time>2018-11-04T11:57:32+01:00</time>
      </trkpt>
      <trkpt lat="45.13509" lon="0.32962">
        <ele>119</ele>
        <time>2018-11-04T11:57:37+01:00</time>
      </trkpt>
      <trkpt lat="45.13563" lon="0.32945">
        <ele>122</ele>
        <time>2018-11-04T11:57:42+01:00</time>
      </trkpt>
      <trkpt lat="45.13642" lon="0.32915">
        <ele>125</ele>
        <time>2018-11-04T11:57:47+01:00</time>
      </trkpt>
      <trkpt lat="45.13672" lon="0.32937">
        <ele>128</ele>
        <time>2018-11-04T11:57:52+01:00</time>
      </trkpt>
      <trkpt lat="45.13677" lon="0.33072">
        <ele>132</ele>
        <time>2018-11-04T11:57:57+01:00</time>
      </trkpt>
      <trkpt lat="45.13724" lon="0.33128">
        <ele>133</ele>
        <time>2018-11-04T11:58:02+01:00</time>
      </trkpt>
      <trkpt lat="45.13763" lon="0.33216">
        <ele>134</ele>
        <time>2018-11-04T11:58:07+01:00</time>
      </trkpt>
      <trkpt lat="45.13951" lon="0.33289">
        <ele>134</ele>
        <time>2018-11-04T11:58:12+01:00</time>
      </trkpt>
      <trkpt lat="45.13955" lon="0.33196">
        <ele>137</ele>
        <time>2018-11-04T11:58:17+01:00</time>
      </trkpt>
      <trkpt lat="45.14049" lon="0.33173">
        <ele>136</ele>
        <time>2018-11-04T11:58:22+01:00</time>
      </trkpt>
      <trkpt lat="45.14194" lon="0.33175">
        <ele>137</ele>
        <time>2018-11-04T11:58:27+01:00</time>
      </trkpt>
      <trkpt lat="45.14323" lon="0.33147">
        <ele>139</ele>
        <time>2018-11-04T11:58:32+01:00</time>
      </trkpt>
      <trkpt lat="45.14435" lon="0.33121">
        <ele>138</ele>
        <time>2018-11-04T11:58:37+01:00</time>
      </trkpt>
      <trkpt lat="45.14459" lon="0.33102">
        <ele>136</ele>
        <time>2018-11-04T11:58:42+01:00</time>
      </trkpt>
      <trkpt lat="45.14492" lon="0.33061">
        <ele>133</ele>
        <time>2018-11-04T11:58:47+01:00</time>
      </trkpt>
      <trkpt lat="45.1455" lon="0.32988">
        <ele>129</ele>
        <time>2018-11-04T11:58:52+01:00</time>
      </trkpt>
      <trkpt lat="45.14645" lon="0.32986">
        <ele>128</ele>
        <time>2018-11-04T11:58:57+01:00</time>
      </trkpt>
      <trkpt lat="45.14863" lon="0.32707">
        <ele>123</ele>
        <time>2018-11-04T11:59:02+01:00</time>
      </trkpt>
      <trkpt lat="45.14715" lon="0.32301">
        <ele>109</ele>
        <time>2018-11-04T11:59:07+01:00</time>
      </trkpt>
      <trkpt lat="45.14715" lon="0.32201">
        <ele>106</ele>
        <time>2018-11-04T11:59:12+01:00</time>
      </trkpt>
      <trkpt lat="45.14641" lon="0.32046">
        <ele>112</ele>
        <time>2018-11-04T11:59:17+01:00</time>
      </trkpt>
      <trkpt lat="45.14624" lon="0.31939">
        <ele>119</ele>
        <time>2018-11-04T11:59:22+01:00</time>
      </trkpt>
      <trkpt lat="45.14648" lon="0.31881">
        <ele>119</ele>
        <time>2018-11-04T11:59:27+01:00</time>
      </trkpt>
    </trkseg>
  </trk>
</gpx>